^^
Saratoga-Weather Station Historical Data
Daily Summary for June 29, 2022 Units:  Both    English   Metric
Daily Weekly Monthly Yearly Custom
  High: Low: Average:
Temperature: 65.5 °F /  18.6 °C 63 °F /  17.2 °C 64.6 °F /  18.1 °C
Dew Point: 57.4 °F /  14.1 °C 53.8 °F /  12.1 °C 55.8 °F /  13.2 °C
Humidity: 77% 69% 73%
Wind Speed: 0.9mph /  1.4km/h - 0mph /  0km/h
Wind Gust: 2mph /  3.2km/h - -
Wind- - WSW
Pressure: 30 in /  1014.9 hPa 29.9 in /  1012.9 hPa -
Precipitation: 0 in /  0.0 mm    
Historical Graphs
 
 
Tabular Data for June 29, 2022
Time Temperature Dew Point Pressure Wind Wind Speed Wind Gust Humidity Rainfall Rate (Hourly) solar
00:03 65.5 °F /  18.6 °C 55.8 °F /  13.2 °C 30in /  1014.6hPa Calm     71% 0in /  0.0mm 0 W/m2
00:08 65.5 °F /  18.6 °C 55.8 °F /  13.2 °C 30in /  1014.9hPa Calm     71% 0in /  0.0mm 0 W/m2
00:13 65.5 °F /  18.6 °C 55.8 °F /  13.2 °C 30in /  1014.6hPa Calm   1mph /  1.6km/h 71% 0in /  0.0mm 0 W/m2
00:18 65.5 °F /  18.6 °C 56.3 °F /  13.5 °C 30in /  1014.9hPa Calm     72% 0in /  0.0mm 0 W/m2
00:23 65.1 °F /  18.4 °C 55.9 °F /  13.3 °C 30in /  1014.9hPa Calm   1mph /  1.6km/h 72% 0in /  0.0mm 0 W/m2
00:28 64.9 °F /  18.3 °C 55.8 °F /  13.2 °C 30in /  1014.9hPa Calm     72% 0in /  0.0mm 0 W/m2
00:33 64.8 °F /  18.2 °C 55.6 °F /  13.1 °C 30in /  1014.6hPa Calm     72% 0in /  0.0mm 0 W/m2
00:38 64.6 °F /  18.1 °C 55.4 °F /  13 °C 30in /  1014.6hPa Calm     72% 0in /  0.0mm 0 W/m2
00:43 64.4 °F /  18 °C 55.6 °F /  13.1 °C 30in /  1014.9hPa Calm   1mph /  1.6km/h 73% 0in /  0.0mm 0 W/m2
00:48 64.2 °F /  17.9 °C 55.4 °F /  13 °C 30in /  1014.9hPa Calm     73% 0in /  0.0mm 0 W/m2
00:53 64.2 °F /  17.9 °C 55.4 °F /  13 °C 30in /  1014.6hPa Calm   1mph /  1.6km/h 73% 0in /  0.0mm 0 W/m2
00:58 64.2 °F /  17.9 °C 55.4 °F /  13 °C 30in /  1014.6hPa Calm     73% 0in /  0.0mm 0 W/m2
01:03 64.2 °F /  17.9 °C 55.8 °F /  13.2 °C 30in /  1014.6hPa WSW 0.9mph /  1.4km/h 2mph /  3.2km/h 74% 0in /  0.0mm 0 W/m2
01:08 64.4 °F /  18 °C 55.9 °F /  13.3 °C 30in /  1014.6hPa Calm   1mph /  1.6km/h 74% 0in /  0.0mm 0 W/m2
01:13 64.4 °F /  18 °C 55.9 °F /  13.3 °C 30in /  1014.6hPa Calm   2mph /  3.2km/h 74% 0in /  0.0mm 0 W/m2
01:18 64.6 °F /  18.1 °C 56.5 °F /  13.6 °C 30in /  1014.6hPa Calm     75% 0in /  0.0mm 0 W/m2
01:23 64.4 °F /  18 °C 56.3 °F /  13.5 °C 30in /  1014.6hPa Calm     75% 0in /  0.0mm 0 W/m2
01:29 64.4 °F /  18 °C 56.3 °F /  13.5 °C 30in /  1014.6hPa Calm     75% 0in /  0.0mm 0 W/m2
01:34 64.4 °F /  18 °C 56.3 °F /  13.5 °C 30in /  1014.6hPa Calm     75% 0in /  0.0mm 0 W/m2
01:39 64.4 °F /  18 °C 56.3 °F /  13.5 °C 30in /  1014.6hPa Calm     75% 0in /  0.0mm 0 W/m2
01:44 64.4 °F /  18 °C 56.3 °F /  13.5 °C 30in /  1014.6hPa Calm     75% 0in /  0.0mm 0 W/m2
01:49 64.4 °F /  18 °C 56.7 °F /  13.7 °C 30in /  1014.6hPa Calm     76% 0in /  0.0mm 0 W/m2
01:54 64.4 °F /  18 °C 56.3 °F /  13.5 °C 30in /  1014.2hPa Calm     75% 0in /  0.0mm 0 W/m2
01:59 64.6 °F /  18.1 °C 56.5 °F /  13.6 °C 30in /  1014.2hPa Calm     75% 0in /  0.0mm 0 W/m2
02:04 64.6 °F /  18.1 °C 56.5 °F /  13.6 °C 30in /  1014.2hPa Calm     75% 0in /  0.0mm 0 W/m2
02:09 64.8 °F /  18.2 °C 57 °F /  13.9 °C 30in /  1014.2hPa Calm     76% 0in /  0.0mm 0 W/m2
02:14 64.8 °F /  18.2 °C 57 °F /  13.9 °C 30in /  1014.2hPa Calm     76% 0in /  0.0mm 0 W/m2
02:19 64.8 °F /  18.2 °C 56.7 °F /  13.7 °C 30in /  1014.6hPa Calm     75% 0in /  0.0mm 0 W/m2
02:24 64.8 °F /  18.2 °C 57 °F /  13.9 °C 30in /  1014.6hPa Calm     76% 0in /  0.0mm 0 W/m2
02:29 64.8 °F /  18.2 °C 57 °F /  13.9 °C 30in /  1014.6hPa Calm     76% 0in /  0.0mm 0 W/m2
02:34 64.8 °F /  18.2 °C 57 °F /  13.9 °C 30in /  1014.2hPa Calm     76% 0in /  0.0mm 0 W/m2
02:39 64.8 °F /  18.2 °C 57.4 °F /  14.1 °C 30in /  1014.2hPa Calm     77% 0in /  0.0mm 0 W/m2
02:44 64.8 °F /  18.2 °C 57 °F /  13.9 °C 30in /  1014.2hPa Calm     76% 0in /  0.0mm 0 W/m2
02:49 64.6 °F /  18.1 °C 56.8 °F /  13.8 °C 30in /  1014.2hPa Calm     76% 0in /  0.0mm 0 W/m2
02:54 64.6 °F /  18.1 °C 56.8 °F /  13.8 °C 30in /  1014.2hPa Calm     76% 0in /  0.0mm 0 W/m2
02:59 64.6 °F /  18.1 °C 56.8 °F /  13.8 °C 30in /  1014.2hPa Calm     76% 0in /  0.0mm 0 W/m2
03:04 64.6 °F /  18.1 °C 56.8 °F /  13.8 °C 30in /  1014.2hPa Calm     76% 0in /  0.0mm 0 W/m2
03:09 64.6 °F /  18.1 °C 56.5 °F /  13.6 °C 30in /  1014.2hPa Calm     75% 0in /  0.0mm 0 W/m2
03:14 64.6 °F /  18.1 °C 56.5 °F /  13.6 °C 30in /  1014.2hPa Calm     75% 0in /  0.0mm 0 W/m2
03:19 64.6 °F /  18.1 °C 56.1 °F /  13.4 °C 29.9in /  1013.9hPa Calm     74% 0in /  0.0mm 0 W/m2
03:24 64.6 °F /  18.1 °C 55.8 °F /  13.2 °C 29.9in /  1013.9hPa Calm     73% 0in /  0.0mm 0 W/m2
03:29 64.6 °F /  18.1 °C 55.8 °F /  13.2 °C 29.9in /  1013.9hPa Calm     73% 0in /  0.0mm 0 W/m2
03:34 64.8 °F /  18.2 °C 55.6 °F /  13.1 °C 29.9in /  1013.9hPa Calm     72% 0in /  0.0mm 0 W/m2
03:39 64.8 °F /  18.2 °C 55.6 °F /  13.1 °C 29.9in /  1013.9hPa Calm     72% 0in /  0.0mm 0 W/m2
03:44 64.9 °F /  18.3 °C 55.4 °F /  13 °C 29.9in /  1013.5hPa Calm     71% 0in /  0.0mm 0 W/m2
03:49 64.9 °F /  18.3 °C 54.9 °F /  12.7 °C 29.9in /  1013.5hPa Calm     70% 0in /  0.0mm 0 W/m2
03:54 64.9 °F /  18.3 °C 55.8 °F /  13.2 °C 29.9in /  1013.5hPa Calm     72% 0in /  0.0mm 0 W/m2
03:59 65.1 °F /  18.4 °C 55.4 °F /  13 °C 29.9in /  1013.5hPa Calm     71% 0in /  0.0mm 0 W/m2
04:04 65.1 °F /  18.4 °C 55 °F /  12.8 °C 29.9in /  1013.5hPa Calm     70% 0in /  0.0mm 0 W/m2
04:09 65.1 °F /  18.4 °C 55 °F /  12.8 °C 29.9in /  1013.2hPa Calm     70% 0in /  0.0mm 0 W/m2
04:14 65.3 °F /  18.5 °C 55.2 °F /  12.9 °C 29.9in /  1013.2hPa Calm     70% 0in /  0.0mm 0 W/m2
04:19 65.3 °F /  18.5 °C 54.9 °F /  12.7 °C 29.9in /  1013.2hPa Calm     69% 0in /  0.0mm 0 W/m2
04:24 65.3 °F /  18.5 °C 54.9 °F /  12.7 °C 29.9in /  1013.2hPa Calm     69% 0in /  0.0mm 0 W/m2
04:29 65.3 °F /  18.5 °C 56.1 °F /  13.4 °C 29.9in /  1013.2hPa Calm     72% 0in /  0.0mm 0 W/m2
04:34 65.5 °F /  18.6 °C 56.7 °F /  13.7 °C 29.9in /  1013.2hPa Calm     73% 0in /  0.0mm 0 W/m2
04:39 65.1 °F /  18.4 °C 55.9 °F /  13.3 °C 29.9in /  1013.2hPa Calm     72% 0in /  0.0mm 0 W/m2
04:44 65.1 °F /  18.4 °C 56.3 °F /  13.5 °C 29.9in /  1013.2hPa Calm     73% 0in /  0.0mm 0 W/m2
04:49 65.1 °F /  18.4 °C 56.3 °F /  13.5 °C 29.9in /  1013.2hPa Calm     73% 0in /  0.0mm 0 W/m2
04:54 64.9 °F /  18.3 °C 56.1 °F /  13.4 °C 29.9in /  1013.2hPa Calm     73% 0in /  0.0mm 0 W/m2
04:59 64.9 °F /  18.3 °C 56.1 °F /  13.4 °C 29.9in /  1013.2hPa Calm     73% 0in /  0.0mm 0 W/m2
05:04 64.9 °F /  18.3 °C 56.1 °F /  13.4 °C 29.9in /  1013.2hPa Calm     73% 0in /  0.0mm 0 W/m2
05:09 64.9 °F /  18.3 °C 56.1 °F /  13.4 °C 29.9in /  1012.9hPa Calm     73% 0in /  0.0mm 0 W/m2
05:14 64.9 °F /  18.3 °C 56.1 °F /  13.4 °C 29.9in /  1013.2hPa Calm     73% 0in /  0.0mm 0 W/m2
05:19 64.8 °F /  18.2 °C 55.9 °F /  13.3 °C 29.9in /  1012.9hPa Calm     73% 0in /  0.0mm 0 W/m2
05:24 64.8 °F /  18.2 °C 56.3 °F /  13.5 °C 29.9in /  1012.9hPa Calm     74% 0in /  0.0mm 0 W/m2
05:29 64.6 °F /  18.1 °C 56.1 °F /  13.4 °C 29.9in /  1012.9hPa Calm     74% 0in /  0.0mm 0 W/m2
05:34 64.4 °F /  18 °C 55.9 °F /  13.3 °C 29.9in /  1012.9hPa Calm     74% 0in /  0.0mm 0 W/m2
05:39 64.2 °F /  17.9 °C 55.4 °F /  13 °C 29.9in /  1012.9hPa Calm     73% 0in /  0.0mm 0 W/m2
05:44 64 °F /  17.8 °C 54.5 °F /  12.5 °C 29.9in /  1012.9hPa Calm     71% 0in /  0.0mm 5 W/m2
05:49 63.7 °F /  17.6 °C 54.1 °F /  12.3 °C 29.9in /  1012.9hPa Calm     71% 0in /  0.0mm 7 W/m2
05:54 63.7 °F /  17.6 °C 54.9 °F /  12.7 °C 29.9in /  1012.9hPa Calm     73% 0in /  0.0mm 7 W/m2
05:59 63.5 °F /  17.5 °C 55 °F /  12.8 °C 29.9in /  1012.9hPa Calm     74% 0in /  0.0mm 9 W/m2
06:04 63.3 °F /  17.4 °C 54.5 °F /  12.5 °C 29.9in /  1012.9hPa Calm     73% 0in /  0.0mm 12 W/m2
06:09 63.1 °F /  17.3 °C 54 °F /  12.2 °C 29.9in /  1012.9hPa Calm     72% 0in /  0.0mm 16 W/m2
06:14 63 °F /  17.2 °C 53.8 °F /  12.1 °C 29.9in /  1012.9hPa Calm     72% 0in /  0.0mm 21 W/m2
06:19 63 °F /  17.2 °C 53.8 °F /  12.1 °C 29.9in /  1012.9hPa Calm     72% 0in /  0.0mm 25 W/m2
06:24 63 °F /  17.2 °C 53.8 °F /  12.1 °C 29.9in /  1012.9hPa Calm     72% 0in /  0.0mm 28 W/m2
06:29 63 °F /  17.2 °C 54.1 °F /  12.3 °C 29.9in /  1012.9hPa Calm     73% 0in /  0.0mm 26 W/m2
06:34 63 °F /  17.2 °C 54.1 °F /  12.3 °C 29.9in /  1012.9hPa Calm     73% 0in /  0.0mm 26 W/m2
06:39 63 °F /  17.2 °C 54.5 °F /  12.5 °C 29.9in /  1012.9hPa Calm     74% 0in /  0.0mm 32 W/m2
Juneau County Weather
Compliments of Weather Underground - 2 mb